Time;durP1;ratioP1;P1;durP2;ratioP2;P2;SDS_P1;SDS_P2;PMS_P1;PMS_P2;Temp;Humidity;BMP_temperature;BMP_pressure;BME280_temperature;BME280_humidity;BME280_pressure;Samples;Min_cycle;Max_cycle;Signal;HPM_P1;HPM_P2
2023/08/09 00:00:02;;;;;;;6.95;0.70;;;;;;;14.65;67.94;100035.22;5027379;28;20108;-77
2023/08/09 00:02:29;;;;;;;6.05;0.50;;;;;;;14.47;67.94;100008.00;5016070;28;20049;-77
2023/08/09 00:04:56;;;;;;;4.53;0.50;;;;;;;14.61;68.00;100037.16;5018762;28;20120;-77
2023/08/09 00:07:23;;;;;;;5.32;0.50;;;;;;;14.63;67.65;100042.34;5017289;28;20385;-77
2023/08/09 00:09:50;;;;;;;4.18;0.50;;;;;;;14.61;67.71;100045.03;5013568;28;20488;-73
2023/08/09 00:12:17;;;;;;;7.93;0.73;;;;;;;14.63;67.33;100047.63;5016868;28;20046;-73
2023/08/09 00:14:44;;;;;;;12.75;0.32;;;;;;;14.61;67.42;100052.06;5014943;28;20472;-73
2023/08/09 00:17:12;;;;;;;2.92;0.57;;;;;;;14.59;67.22;100054.75;5015018;28;20046;-74
2023/08/09 00:19:39;;;;;;;2.92;0.43;;;;;;;14.59;66.92;100052.13;5018087;28;20066;-73
2023/08/09 00:22:06;;;;;;;3.47;0.32;;;;;;;14.57;67.06;100059.25;5017551;28;20404;-73
2023/08/09 00:24:33;;;;;;;6.93;0.50;;;;;;;14.55;66.49;100058.47;5012969;28;20050;-73
2023/08/09 00:27:01;;;;;;;3.60;0.30;;;;;;;14.54;66.46;100056.78;5016888;28;20053;-73
2023/08/09 00:29:28;;;;;;;4.30;0.30;;;;;;;14.52;66.07;100066.50;5013212;28;20104;-73
2023/08/09 00:31:56;;;;;;;4.43;0.35;;;;;;;14.51;65.99;100075.25;5012173;28;20389;-73
2023/08/09 00:34:24;;;;;;;4.90;0.40;;;;;;;14.50;66.12;100070.94;5010844;28;20452;-73
2023/08/09 00:36:51;;;;;;;5.38;0.75;;;;;;;14.40;65.71;100062.63;5018006;28;20060;-73
2023/08/09 00:39:18;;;;;;;3.83;0.30;;;;;;;14.48;65.52;100072.78;5011007;28;20041;-73
2023/08/09 00:41:45;;;;;;;3.80;0.70;;;;;;;14.47;65.73;100078.09;5016444;28;20120;-73
2023/08/09 00:44:12;;;;;;;5.40;0.52;;;;;;;14.46;65.30;100093.03;5016514;28;20053;-73
2023/08/09 00:46:39;;;;;;;2.65;0.30;;;;;;;14.44;65.54;100084.34;5015367;28;20057;-73
2023/08/09 00:49:07;;;;;;;5.93;0.40;;;;;;;14.41;65.79;100089.75;5015799;28;20046;-73
2023/08/09 00:51:35;;;;;;;10.50;1.10;;;;;;;14.40;65.76;100083.66;5015793;28;20056;-73
2023/08/09 00:54:02;;;;;;;5.93;0.35;;;;;;;14.33;65.69;100073.47;5022663;28;20415;-73
2023/08/09 00:56:30;;;;;;;3.83;0.30;;;;;;;14.34;65.84;100083.06;5011163;28;20053;-73
2023/08/09 00:58:57;;;;;;;8.35;0.30;;;;;;;14.28;65.64;100072.81;5014322;28;20057;-73
2023/08/09 01:01:24;;;;;;;4.35;1.45;;;;;;;14.27;65.57;100081.63;5011706;28;20060;-73
2023/08/09 01:03:51;;;;;;;3.75;0.50;;;;;;;14.32;65.57;100085.75;5015629;28;20085;-74
2023/08/09 01:06:24;;;;;;;5.20;0.60;;;;;;;14.31;65.65;100093.69;5012844;28;20389;-74
2023/08/09 01:09:04;;;;;;;13.30;0.38;;;;;;;14.31;65.63;100096.31;5011595;28;20060;-75
2023/08/09 01:11:37;;;;;;;7.43;0.50;;;;;;;14.30;65.75;100099.88;5009549;28;20966;-75
2023/08/09 01:14:06;;;;;;;7.88;0.45;;;;;;;14.29;65.91;100111.34;5018271;28;20515;-76
2023/08/09 01:16:34;;;;;;;3.45;0.40;;;;;;;14.27;65.74;100113.16;5018802;28;20084;-75
2023/08/09 01:19:05;;;;;;;6.15;0.38;;;;;;;14.26;65.89;100112.31;5012892;28;20046;-75
2023/08/09 01:21:36;;;;;;;5.80;0.40;;;;;;;14.24;65.81;100113.31;5017223;28;20064;-75
2023/08/09 01:24:05;;;;;;;6.13;1.17;;;;;;;14.22;65.71;100128.25;5014514;28;20401;-75
2023/08/09 01:26:32;;;;;;;4.88;0.57;;;;;;;14.21;65.95;100119.53;5016025;28;20064;-75
2023/08/09 01:28:59;;;;;;;7.70;0.40;;;;;;;14.20;66.05;100116.97;5014086;28;20476;-75
2023/08/09 01:31:27;;;;;;;7.05;0.75;;;;;;;14.18;65.91;100123.16;5011643;28;20519;-75
2023/08/09 01:33:54;;;;;;;5.75;0.30;;;;;;;14.16;65.97;100117.09;5011427;28;20128;-78
2023/08/09 01:36:24;;;;;;;6.80;0.70;;;;;;;14.13;65.84;100119.88;5016302;28;20468;-76
2023/08/09 01:39:07;;;;;;;4.40;0.60;;;;;;;14.17;66.23;100131.97;5012101;28;20050;-75
2023/08/09 01:41:34;;;;;;;6.10;0.40;;;;;;;14.13;66.02;100140.88;5014140;28;20112;-76
2023/08/09 01:44:02;;;;;;;9.18;0.40;;;;;;;14.13;66.18;100147.91;5013127;28;20049;-74
2023/08/09 01:46:30;;;;;;;2.67;0.30;;;;;;;14.12;66.13;100151.47;5010969;28;20100;-75
2023/08/09 01:49:09;;;;;;;10.00;0.68;;;;;;;14.10;65.87;100154.16;5018417;28;20053;-75
2023/08/09 01:51:36;;;;;;;6.22;0.40;;;;;;;14.08;65.81;100160.38;5017852;28;20052;-75
2023/08/09 01:54:03;;;;;;;3.53;0.40;;;;;;;14.06;65.80;100163.09;5014990;28;20057;-75
2023/08/09 01:56:32;;;;;;;3.78;0.28;;;;;;;14.07;65.73;100164.78;5013949;28;20048;-76
2023/08/09 01:58:58;;;;;;;6.05;0.20;;;;;;;14.05;65.83;100171.03;5012863;28;20685;-75
2023/08/09 02:01:25;;;;;;;5.13;0.45;;;;;;;14.05;65.70;100173.63;5016454;28;20046;-75
2023/08/09 02:03:53;;;;;;;6.28;0.70;;;;;;;13.93;65.90;100157.50;5014108;28;20041;-76
2023/08/09 02:06:20;;;;;;;5.13;0.43;;;;;;;14.02;65.88;100181.66;5014143;28;20042;-75
2023/08/09 02:08:46;;;;;;;5.90;0.40;;;;;;;14.02;65.78;100177.25;5014930;28;20060;-75
2023/08/09 02:11:13;;;;;;;7.97;0.30;;;;;;;14.00;66.07;100184.31;5012403;28;20512;-75
2023/08/09 02:13:43;;;;;;;5.80;0.30;;;;;;;13.97;65.99;100176.59;5016827;28;20060;-74
2023/08/09 02:16:10;;;;;;;5.63;0.38;;;;;;;13.82;65.99;100162.34;5014670;28;20095;-75
2023/08/09 02:18:37;;;;;;;5.70;0.30;;;;;;;14.00;65.98;100183.47;5012973;28;20416;-74
2023/08/09 02:21:05;;;;;;;4.57;0.73;;;;;;;13.96;66.21;100188.00;5015153;28;20056;-74
2023/08/09 02:23:32;;;;;;;4.57;0.30;;;;;;;13.99;66.24;100189.66;5009884;28;20050;-74
2023/08/09 02:25:59;;;;;;;3.58;0.30;;;;;;;13.89;66.28;100168.19;5012058;28;20836;-74
2023/08/09 02:28:26;;;;;;;3.40;0.28;;;;;;;13.96;66.27;100182.75;5018313;28;20052;-76
2023/08/09 02:30:54;;;;;;;11.45;0.75;;;;;;;13.89;66.48;100178.69;5010746;28;20045;-76
2023/08/09 02:33:21;;;;;;;5.28;0.40;;;;;;;13.95;66.49;100196.81;5015399;28;20495;-75
2023/08/09 02:35:55;;;;;;;6.28;0.30;;;;;;;13.93;66.68;100194.25;5013861;28;20046;-76
2023/08/09 02:38:22;;;;;;;3.85;0.30;;;;;;;13.94;66.72;100200.34;5016281;28;20049;-76
2023/08/09 02:40:49;;;;;;;4.53;0.35;;;;;;;13.94;66.58;100205.59;5017637;28;20063;-76
2023/08/09 02:43:17;;;;;;;3.78;0.40;;;;;;;13.93;66.69;100211.78;5010211;28;20057;-75
2023/08/09 02:45:44;;;;;;;4.50;0.35;;;;;;;13.91;66.72;100210.97;5017871;28;20058;-75
2023/08/09 02:48:13;;;;;;;9.48;1.05;;;;;;;13.89;66.70;100211.06;5016927;28;20063;-75
2023/08/09 02:50:41;;;;;;;7.07;0.30;;;;;;;13.87;66.77;100210.25;5013647;28;20060;-76
2023/08/09 02:53:08;;;;;;;5.43;0.40;;;;;;;13.87;66.81;100212.03;5013347;28;20111;-75
2023/08/09 02:55:36;;;;;;;2.40;0.43;;;;;;;13.82;66.87;100217.47;5013044;28;20131;-75
2023/08/09 02:58:04;;;;;;;7.68;1.40;;;;;;;13.85;66.92;100222.59;5014821;28;20045;-75
2023/08/09 03:00:31;;;;;;;4.18;0.30;;;;;;;13.83;66.95;100224.44;5011513;28;20041;-76
2023/08/09 03:02:58;;;;;;;5.07;0.32;;;;;;;13.83;67.03;100237.56;5012549;28;20058;-75
2023/08/09 03:05:27;;;;;;;7.50;0.40;;;;;;;13.79;66.90;100229.88;5013689;28;20052;-75
2023/08/09 03:07:54;;;;;;;4.30;0.30;;;;;;;13.81;66.98;100247.25;5013758;28;20068;-76
2023/08/09 03:10:21;;;;;;;6.10;0.55;;;;;;;13.81;66.96;100236.75;5017381;28;20052;-75
2023/08/09 03:12:48;;;;;;;4.18;0.40;;;;;;;13.80;66.90;100244.69;5013573;28;20057;-75
2023/08/09 03:15:16;;;;;;;4.32;0.43;;;;;;;13.80;66.98;100242.06;5013670;28;20056;-75
2023/08/09 03:17:44;;;;;;;3.75;0.28;;;;;;;13.79;66.85;100235.13;5006162;28;20492;-75
2023/08/09 03:20:14;;;;;;;2.40;0.30;;;;;;;13.70;67.10;100231.94;5016178;28;20557;-75
2023/08/09 03:22:43;;;;;;;6.78;0.30;;;;;;;13.77;67.06;100250.06;5013238;28;20077;-75
2023/08/09 03:25:12;;;;;;;3.83;0.30;;;;;;;13.73;66.98;100244.94;5014369;28;20045;-75
2023/08/09 03:27:42;;;;;;;6.32;0.38;;;;;;;13.75;66.83;100252.78;5013937;28;20053;-75
2023/08/09 03:30:10;;;;;;;4.97;0.35;;;;;;;13.73;67.32;100250.19;5013625;28;20800;-73
2023/08/09 03:32:37;;;;;;;4.55;0.40;;;;;;;13.70;67.06;100236.34;5009863;28;20132;-74
2023/08/09 03:35:06;;;;;;;3.38;0.80;;;;;;;13.73;67.15;100258.06;5014070;28;20067;-74
2023/08/09 03:37:33;;;;;;;3.83;0.30;;;;;;;13.72;67.25;100260.78;5014539;28;20192;-73
2023/08/09 03:40:02;;;;;;;3.10;0.30;;;;;;;13.72;67.30;100266.00;5009726;28;20064;-73
2023/08/09 03:42:29;;;;;;;3.60;0.30;;;;;;;13.72;67.36;100271.25;5011147;28;20057;-73
2023/08/09 03:44:56;;;;;;;3.80;0.30;;;;;;;13.71;67.46;100278.25;5013257;28;20055;-72
2023/08/09 03:47:22;;;;;;;6.57;0.50;;;;;;;13.72;67.47;100281.75;5010544;28;20042;-73
2023/08/09 03:49:49;;;;;;;4.13;0.40;;;;;;;13.70;67.62;100279.19;5006517;28;20700;-74
2023/08/09 03:52:16;;;;;;;5.80;0.30;;;;;;;13.63;67.70;100274.22;5011826;28;20053;-73
2023/08/09 03:54:43;;;;;;;3.50;0.20;;;;;;;13.70;67.83;100294.94;5009551;28;20049;-73
2023/08/09 03:57:11;;;;;;;4.53;0.30;;;;;;;13.71;67.91;100293.16;5012501;28;20038;-73
2023/08/09 03:59:38;;;;;;;2.72;0.20;;;;;;;13.72;67.84;100302.75;5016486;28;20398;-73
2023/08/09 04:02:05;;;;;;;5.95;0.30;;;;;;;13.73;68.06;100307.09;5010607;28;20635;-73
2023/08/09 04:04:32;;;;;;;3.67;0.30;;;;;;;13.72;68.14;100308.00;5012449;28;20053;-73
2023/08/09 04:06:59;;;;;;;3.83;0.40;;;;;;;13.71;68.35;100304.50;5009336;28;21196;-73
2023/08/09 04:09:26;;;;;;;6.10;0.30;;;;;;;13.71;68.40;100307.13;5016443;28;20448;-74
2023/08/09 04:11:53;;;;;;;2.15;0.20;;;;;;;13.64;68.54;100296.97;5014342;28;20112;-73
2023/08/09 04:14:22;;;;;;;6.47;0.40;;;;;;;13.72;68.64;100308.88;5013655;28;20053;-73
2023/08/09 04:16:49;;;;;;;5.35;0.30;;;;;;;13.73;68.77;100309.72;5012070;28;20416;-73
2023/08/09 04:19:16;;;;;;;2.63;0.22;;;;;;;13.74;68.99;100306.16;4990557;28;20796;-73
2023/08/09 04:21:43;;;;;;;7.68;0.30;;;;;;;13.63;68.92;100290.84;5018321;28;20052;-73
2023/08/09 04:24:11;;;;;;;4.95;0.20;;;;;;;13.69;69.37;100301.13;5012369;28;20042;-74
2023/08/09 04:26:37;;;;;;;5.68;0.75;;;;;;;13.77;69.24;100313.06;5014914;28;20041;-73
2023/08/09 04:29:04;;;;;;;3.65;0.68;;;;;;;13.77;69.54;100311.28;5010881;28;20129;-74
2023/08/09 04:31:33;;;;;;;3.55;0.30;;;;;;;13.77;69.72;100311.28;5017808;28;20062;-73
2023/08/09 04:34:00;;;;;;;5.57;0.20;;;;;;;13.78;69.62;100314.78;5015387;28;20605;-73
2023/08/09 04:36:27;;;;;;;7.05;0.30;;;;;;;13.80;69.82;100318.19;5015747;28;20046;-72
2023/08/09 04:38:54;;;;;;;8.77;1.30;;;;;;;13.58;69.84;100282.31;5014018;28;20041;-77
2023/08/09 04:41:21;;;;;;;4.63;0.70;;;;;;;13.82;70.07;100324.25;5013620;28;20050;-77
2023/08/09 04:43:48;;;;;;;5.55;1.05;;;;;;;13.79;70.05;100322.59;5013826;28;20097;-76
2023/08/09 04:46:16;;;;;;;6.60;0.40;;;;;;;13.85;70.05;100332.00;5020330;28;20068;-77
2023/08/09 04:48:44;;;;;;;6.88;0.40;;;;;;;13.84;70.07;100335.56;5018516;28;20049;-76
2023/08/09 04:51:12;;;;;;;8.57;0.40;;;;;;;13.87;70.32;100343.31;5014174;28;20053;-77
2023/08/09 04:53:39;;;;;;;7.07;0.68;;;;;;;13.90;70.17;100340.56;5012738;28;20128;-77
2023/08/09 04:56:06;;;;;;;5.32;0.82;;;;;;;13.86;70.48;100338.94;5018548;28;20085;-77
2023/08/09 04:58:33;;;;;;;3.95;0.30;;;;;;;13.93;70.36;100343.06;5017379;28;20056;-76
2023/08/09 05:01:00;;;;;;;3.00;0.30;;;;;;;13.95;70.42;100343.88;5011952;28;20041;-77
2023/08/09 05:03:27;;;;;;;5.75;0.68;;;;;;;13.97;70.32;100347.25;5014541;28;20451;-76
2023/08/09 05:05:56;;;;;;;6.97;0.85;;;;;;;13.98;70.36;100350.78;5018615;28;20052;-75
2023/08/09 05:08:23;;;;;;;6.35;0.60;;;;;;;13.94;70.40;100339.50;5013165;28;20393;-76
2023/08/09 05:10:50;;;;;;;3.17;0.30;;;;;;;14.01;70.35;100348.88;5025787;28;20472;-76
2023/08/09 05:13:17;;;;;;;5.40;0.57;;;;;;;14.03;70.27;100356.69;5017275;28;20049;-77
2023/08/09 05:15:44;;;;;;;6.70;0.40;;;;;;;13.77;70.47;100320.94;5016510;28;20041;-77
2023/08/09 05:18:11;;;;;;;6.53;0.60;;;;;;;13.91;70.31;100339.63;5012706;28;20042;-76
2023/08/09 05:20:37;;;;;;;2.38;0.73;;;;;;;14.09;70.38;100366.97;5021863;28;20050;-76
2023/08/09 05:23:05;;;;;;;6.40;0.40;;;;;;;14.10;70.31;100364.25;5019701;28;20046;-77
2023/08/09 05:25:32;;;;;;;8.52;0.68;;;;;;;14.13;70.65;100363.28;5021283;28;20058;-75
2023/08/09 05:27:59;;;;;;;6.07;0.30;;;;;;;14.15;70.68;100362.31;5018793;28;20048;-76
2023/08/09 05:30:26;;;;;;;6.38;0.47;;;;;;;14.18;70.63;100367.44;5016396;28;20049;-76
2023/08/09 05:32:53;;;;;;;5.32;0.50;;;;;;;14.25;70.99;100377.69;5021508;28;20049;-76
2023/08/09 05:35:20;;;;;;;6.32;0.38;;;;;;;14.31;71.00;100377.44;5010305;28;20052;-77
2023/08/09 05:37:47;;;;;;;15.45;0.30;;;;;;;14.20;70.94;100350.75;5016854;28;20052;-76
2023/08/09 05:40:15;;;;;;;5.97;0.30;;;;;;;14.42;71.02;100385.75;5019755;28;20049;-77
2023/08/09 05:42:43;;;;;;;10.20;0.55;;;;;;;14.47;71.09;100389.06;5013839;28;20057;-77
2023/08/09 05:45:10;;;;;;;12.18;0.68;;;;;;;14.54;71.10;100387.06;5017463;28;20049;-77
2023/08/09 05:47:37;;;;;;;8.48;0.65;;;;;;;14.59;70.94;100382.47;5019400;28;20042;-76
2023/08/09 05:50:04;;;;;;;6.18;0.77;;;;;;;14.66;71.35;100388.31;5014223;28;20077;-74
2023/08/09 05:52:31;;;;;;;4.60;0.40;;;;;;;14.71;71.16;100383.72;5012101;28;20119;-73
2023/08/09 05:54:58;;;;;;;7.78;0.50;;;;;;;14.76;71.27;100387.88;5012425;28;20060;-74
2023/08/09 05:57:27;;;;;;;2.97;0.50;;;;;;;14.82;71.06;100390.25;5013684;28;20053;-73
2023/08/09 05:59:54;;;;;;;11.25;1.10;;;;;;;14.87;70.90;100395.31;5014860;28;20132;-74
2023/08/09 06:02:22;;;;;;;5.90;0.50;;;;;;;14.92;70.75;100416.19;5012238;28;20052;-74
2023/08/09 06:04:49;;;;;;;4.80;0.43;;;;;;;14.94;70.60;100430.97;5014453;28;20450;-75
2023/08/09 06:07:17;;;;;;;6.10;0.35;;;;;;;14.96;70.01;100418.59;5015781;28;20142;-75
2023/08/09 06:09:44;;;;;;;6.18;0.43;;;;;;;14.97;69.81;100424.72;5014643;28;20522;-76
2023/08/09 06:12:10;;;;;;;7.88;0.40;;;;;;;14.96;69.65;100415.13;5010729;28;20045;-76
2023/08/09 06:14:39;;;;;;;2.85;0.30;;;;;;;14.89;69.69;100408.41;5016019;28;20120;-75
2023/08/09 06:17:06;;;;;;;3.20;0.40;;;;;;;15.01;69.72;100423.69;5016777;28;20055;-75
2023/08/09 06:19:33;;;;;;;6.65;0.88;;;;;;;15.01;69.21;100421.91;5011530;28;20074;-75
2023/08/09 06:22:00;;;;;;;5.47;0.60;;;;;;;15.03;69.17;100420.06;5014453;28;20046;-75
2023/08/09 06:24:28;;;;;;;5.72;0.40;;;;;;;15.00;69.23;100417.56;5010069;28;20056;-76
2023/08/09 06:26:55;;;;;;;4.40;0.50;;;;;;;15.02;69.28;100426.22;5013186;28;20042;-75
2023/08/09 06:29:22;;;;;;;3.33;0.70;;;;;;;15.05;69.03;100434.00;5016356;28;20127;-75
2023/08/09 06:31:50;;;;;;;4.30;0.40;;;;;;;15.07;68.94;100426.88;5016398;28;20049;-75
2023/08/09 06:34:17;;;;;;;7.18;0.55;;;;;;;15.07;69.00;100434.78;5013750;28;20333;-75
2023/08/09 06:36:44;;;;;;;14.27;1.30;;;;;;;15.04;69.08;100421.75;5016538;28;20052;-75
2023/08/09 06:39:11;;;;;;;5.85;0.40;;;;;;;15.12;69.10;100428.47;5009487;28;20038;-75
2023/08/09 06:41:38;;;;;;;8.27;0.65;;;;;;;15.12;68.38;100433.75;5009394;28;20082;-74
2023/08/09 06:44:06;;;;;;;5.10;0.90;;;;;;;15.13;67.94;100451.22;5015927;28;20828;-74
2023/08/09 06:46:32;;;;;;;5.35;0.40;;;;;;;15.13;68.07;100445.97;5010698;28;20072;-76
2023/08/09 06:49:01;;;;;;;3.38;0.30;;;;;;;15.16;67.90;100445.84;5017351;28;20057;-77
2023/08/09 06:51:28;;;;;;;4.40;0.50;;;;;;;15.17;67.73;100456.31;5015305;28;20052;-75
2023/08/09 06:53:54;;;;;;;2.63;0.30;;;;;;;15.19;67.32;100464.13;5012070;28;20045;-76
2023/08/09 06:56:21;;;;;;;1.42;0.20;;;;;;;15.20;67.42;100452.69;5016487;28;20607;-76
2023/08/09 06:58:48;;;;;;;7.00;0.65;;;;;;;15.22;67.17;100450.84;5016005;28;20045;-75
2023/08/09 07:01:15;;;;;;;3.30;0.30;;;;;;;15.17;66.53;100444.91;5011202;28;20053;-76
2023/08/09 07:03:43;;;;;;;8.98;0.50;;;;;;;15.29;66.46;100468.09;5004852;28;20049;-78
2023/08/09 07:06:11;;;;;;;2.10;0.28;;;;;;;15.29;66.12;100461.03;4995455;28;20042;-76
2023/08/09 07:08:38;;;;;;;3.83;0.40;;;;;;;15.33;65.82;100468.81;5014672;28;20049;-74
2023/08/09 07:11:05;;;;;;;2.25;0.20;;;;;;;15.34;65.78;100473.13;5010865;28;20403;-74
2023/08/09 07:13:33;;;;;;;3.50;0.20;;;;;;;15.37;65.85;100484.41;5011564;28;20050;-73
2023/08/09 07:16:00;;;;;;;5.85;0.30;;;;;;;15.40;65.88;100486.91;5011608;28;20041;-74
2023/08/09 07:18:27;;;;;;;5.30;0.82;;;;;;;15.42;65.92;100500.81;5012360;28;20069;-74
2023/08/09 07:20:54;;;;;;;1.70;0.30;;;;;;;15.47;65.26;100498.84;5014298;28;20128;-74
2023/08/09 07:23:22;;;;;;;2.58;0.30;;;;;;;15.51;65.38;100499.56;5014272;28;20059;-73
2023/08/09 07:25:49;;;;;;;4.18;0.30;;;;;;;15.53;65.16;100501.22;5008182;28;20050;-74
2023/08/09 07:28:16;;;;;;;4.85;0.20;;;;;;;15.56;63.93;100502.03;5010959;28;20697;-74
2023/08/09 07:30:43;;;;;;;1.40;0.20;;;;;;;15.59;64.27;100512.41;5010046;28;20053;-73
2023/08/09 07:33:10;;;;;;;4.00;0.40;;;;;;;15.63;64.33;100504.31;5014055;28;20055;-74
2023/08/09 07:35:37;;;;;;;5.40;0.28;;;;;;;15.70;63.88;100497.03;5009562;28;20151;-74
2023/08/09 07:38:04;;;;;;;4.60;0.70;;;;;;;15.80;64.04;100505.41;4975708;28;20049;-74
2023/08/09 07:40:32;;;;;;;2.83;0.30;;;;;;;15.88;64.17;100498.88;5004911;28;20049;-74
2023/08/09 07:43:01;;;;;;;0.82;0.20;;;;;;;15.92;64.57;100489.03;5014754;28;20049;-74
2023/08/09 07:45:29;;;;;;;3.45;0.20;;;;;;;16.09;64.09;100502.31;5012536;28;20148;-73
2023/08/09 07:47:56;;;;;;;2.88;0.30;;;;;;;16.21;63.87;100507.94;5013672;28;20506;-75
2023/08/09 07:50:22;;;;;;;3.85;0.30;;;;;;;16.30;63.63;100513.63;5010645;28;20042;-74
2023/08/09 07:52:49;;;;;;;5.38;0.32;;;;;;;16.36;63.58;100516.00;5016885;28;20045;-74
2023/08/09 07:55:17;;;;;;;9.32;0.43;;;;;;;16.42;63.46;100520.97;5016049;28;20052;-73
2023/08/09 07:57:46;;;;;;;5.38;0.25;;;;;;;16.37;63.76;100496.59;5020628;28;20042;-74
2023/08/09 08:00:17;;;;;;;4.07;0.30;;;;;;;16.47;63.15;100512.84;5016068;28;20056;-74
2023/08/09 08:02:45;;;;;;;3.28;0.30;;;;;;;16.60;62.89;100523.69;5015746;28;20500;-74
2023/08/09 08:05:12;;;;;;;3.35;0.20;;;;;;;16.68;62.44;100520.66;5015218;28;20063;-75
2023/08/09 08:07:40;;;;;;;2.85;0.60;;;;;;;16.75;62.50;100528.19;5020340;28;20050;-72
2023/08/09 08:10:09;;;;;;;5.35;0.20;;;;;;;16.82;61.66;100528.78;5017403;28;20046;-76
2023/08/09 08:12:36;;;;;;;2.75;0.20;;;;;;;16.86;61.33;100536.50;5017830;28;20496;-76
2023/08/09 08:15:06;;;;;;;3.92;0.20;;;;;;;16.89;60.58;100566.31;5020352;28;20046;-77
2023/08/09 08:17:33;;;;;;;1.60;0.20;;;;;;;16.86;59.56;100564.66;5018531;28;20057;-75
2023/08/09 08:20:01;;;;;;;0.90;0.20;;;;;;;16.83;60.17;100573.56;5017406;28;20046;-75
2023/08/09 08:22:28;;;;;;;3.28;0.30;;;;;;;16.84;60.37;100580.56;5016854;28;21451;-75
2023/08/09 08:24:55;;;;;;;1.25;0.20;;;;;;;16.84;61.19;100583.19;5015458;28;20411;-76
2023/08/09 08:27:22;;;;;;;3.42;0.20;;;;;;;16.83;60.82;100581.50;5017788;28;20052;-75
2023/08/09 08:29:49;;;;;;;2.00;0.20;;;;;;;16.83;60.63;100578.00;5012323;28;20124;-75
2023/08/09 08:32:17;;;;;;;2.85;0.17;;;;;;;16.83;60.56;100584.13;5014818;28;20041;-75
2023/08/09 08:34:44;;;;;;;2.10;0.20;;;;;;;16.79;60.99;100574.66;5016872;28;20041;-75
2023/08/09 08:37:12;;;;;;;3.85;0.20;;;;;;;16.84;60.70;100583.19;5014112;28;20701;-75
2023/08/09 08:39:44;;;;;;;5.43;0.52;;;;;;;16.85;60.76;100581.44;5018781;28;20057;-75
2023/08/09 08:42:11;;;;;;;4.93;0.28;;;;;;;16.86;61.04;100586.63;5012111;28;20069;-75
2023/08/09 08:44:38;;;;;;;1.60;0.30;;;;;;;16.85;60.57;100595.47;5012339;28;20053;-75
2023/08/09 08:47:07;;;;;;;2.38;0.10;;;;;;;16.84;60.37;100606.94;5011284;28;20074;-75
2023/08/09 08:49:40;;;;;;;2.80;0.38;;;;;;;16.80;60.95;100604.53;5008859;28;20049;-75
2023/08/09 08:52:07;;;;;;;4.10;0.30;;;;;;;16.78;61.35;100596.66;5014004;28;20052;-74
2023/08/09 08:54:35;;;;;;;4.30;0.38;;;;;;;16.76;61.24;100602.91;5011585;28;20050;-76
2023/08/09 08:57:02;;;;;;;1.27;0.20;;;;;;;16.71;61.50;100605.78;5016880;28;20120;-74
2023/08/09 08:59:29;;;;;;;2.90;0.47;;;;;;;16.68;62.29;100600.66;5014349;28;20539;-75
2023/08/09 09:01:57;;;;;;;4.80;0.93;;;;;;;16.59;62.55;100590.50;5018645;28;20045;-76
2023/08/09 09:04:24;;;;;;;1.27;0.20;;;;;;;16.68;62.04;100612.97;5014130;28;20046;-75
2023/08/09 09:06:53;;;;;;;2.70;0.20;;;;;;;16.68;62.38;100600.66;5011106;28;20058;-75
2023/08/09 09:09:20;;;;;;;2.55;0.10;;;;;;;16.70;62.20;100611.13;5018922;28;20052;-74
2023/08/09 09:11:47;;;;;;;4.05;0.20;;;;;;;16.71;62.11;100615.47;5010318;28;20675;-74
2023/08/09 09:14:16;;;;;;;4.47;0.30;;;;;;;16.72;62.33;100611.91;5016571;28;20160;-75
2023/08/09 09:16:44;;;;;;;2.45;0.13;;;;;;;16.76;61.82;100618.75;5015730;28;20057;-75
2023/08/09 09:19:11;;;;;;;5.03;0.30;;;;;;;16.78;61.57;100617.78;5012759;28;20056;-73
2023/08/09 09:21:38;;;;;;;6.57;0.65;;;;;;;16.78;61.27;100612.50;5015797;28;20045;-75
2023/08/09 09:24:08;;;;;;;3.50;0.20;;;;;;;16.78;61.48;100603.72;5013724;28;20049;-74
2023/08/09 09:26:37;;;;;;;4.85;0.30;;;;;;;16.77;61.07;100626.63;5011306;28;20050;-72
2023/08/09 09:29:08;;;;;;;2.08;0.20;;;;;;;16.80;61.44;100621.22;5012586;28;20061;-75
2023/08/09 09:31:36;;;;;;;3.40;0.25;;;;;;;16.71;61.18;100613.69;5015039;28;20060;-75
2023/08/09 09:34:04;;;;;;;6.88;0.60;;;;;;;16.79;61.02;100614.22;5013039;28;20050;-75
2023/08/09 09:36:31;;;;;;;1.05;0.30;;;;;;;16.78;60.97;100628.31;5017338;28;20058;-74
2023/08/09 09:38:59;;;;;;;5.05;0.30;;;;;;;16.75;60.91;100630.22;5015338;28;20538;-76
2023/08/09 09:41:27;;;;;;;1.30;0.20;;;;;;;16.75;60.71;100652.19;5016712;28;20045;-75
2023/08/09 09:43:54;;;;;;;6.57;0.30;;;;;;;16.74;61.41;100657.53;5010222;28;20038;-77
2023/08/09 09:46:22;;;;;;;2.60;0.10;;;;;;;16.71;61.57;100655.03;5016789;28;20050;-75
2023/08/09 09:48:50;;;;;;;2.15;1.33;;;;;;;16.64;60.93;100697.50;5013679;28;20140;-76
2023/08/09 09:51:19;;;;;;;2.92;0.30;;;;;;;16.37;60.28;100646.88;5011930;28;20052;-76
2023/08/09 09:53:46;;;;;;;1.45;0.25;;;;;;;16.45;61.08;100666.75;5009648;28;20500;-76
2023/08/09 09:56:14;;;;;;;2.97;0.43;;;;;;;16.37;60.71;100672.38;5013783;28;20045;-76
2023/08/09 09:58:43;;;;;;;2.47;0.20;;;;;;;16.33;61.41;100674.28;5012374;28;20060;-76
2023/08/09 10:01:12;;;;;;;2.58;0.20;;;;;;;16.28;61.17;100671.00;5012896;28;20083;-76
2023/08/09 10:03:42;;;;;;;7.22;0.80;;;;;;;16.23;62.11;100675.63;5009842;28;20050;-76
2023/08/09 10:06:13;;;;;;;1.20;0.20;;;;;;;16.20;62.11;100675.75;5013626;28;20058;-76
2023/08/09 10:08:41;;;;;;;3.15;0.30;;;;;;;16.19;62.54;100689.84;5018332;28;20045;-75
2023/08/09 10:11:09;;;;;;;4.68;0.30;;;;;;;16.11;62.53;100674.38;5009939;28;20056;-76
2023/08/09 10:13:40;;;;;;;2.83;0.30;;;;;;;16.14;63.38;100690.06;5013340;28;20049;-76
2023/08/09 10:16:11;;;;;;;1.30;0.30;;;;;;;16.14;63.45;100682.16;5012816;28;20417;-76
2023/08/09 10:18:42;;;;;;;5.75;0.85;;;;;;;16.08;63.36;100681.53;5011232;28;20500;-76
2023/08/09 10:21:12;;;;;;;2.70;0.30;;;;;;;16.13;63.19;100687.47;5016035;28;20047;-76
2023/08/09 10:23:39;;;;;;;0.50;0.10;;;;;;;16.10;63.31;100696.34;5009546;28;20049;-77
2023/08/09 10:26:06;;;;;;;3.28;0.20;;;;;;;16.05;63.48;100708.00;5011121;28;20057;-76
2023/08/09 10:28:49;;;;;;;4.78;0.85;;;;;;;16.04;63.71;100707.16;5019392;28;20076;-76
2023/08/09 10:31:51;;;;;;;2.60;0.20;;;;;;;16.03;64.05;100709.88;5012779;28;20042;-77
2023/08/09 10:34:20;;;;;;;4.00;0.20;;;;;;;15.96;63.60;100702.22;5015524;28;20724;-77
2023/08/09 10:36:53;;;;;;;4.10;0.50;;;;;;;15.99;64.21;100709.13;5011190;28;20192;-77
2023/08/09 10:39:21;;;;;;;2.40;0.20;;;;;;;15.98;64.29;100717.09;5020874;28;20045;-79
2023/08/09 10:41:56;;;;;;;5.78;0.70;;;;;;;16.01;64.38;100709.06;5016311;28;20042;-79
2023/08/09 10:44:39;;;;;;;9.40;0.50;;;;;;;16.01;64.82;100725.72;5013494;28;20591;-80
2023/08/09 10:47:10;;;;;;;2.65;0.20;;;;;;;16.00;65.27;100712.66;5009727;28;20049;-78
2023/08/09 10:49:58;;;;;;;4.00;0.47;;;;;;;15.96;65.08;100701.34;5015489;28;20552;-78
2023/08/09 10:52:32;;;;;;;3.13;0.13;;;;;;;15.99;65.02;100710.91;5015381;28;20048;-78
2023/08/09 10:55:29;;;;;;;3.55;0.30;;;;;;;15.95;64.98;100716.31;5018341;28;20045;-77
2023/08/09 10:57:58;;;;;;;6.47;0.40;;;;;;;15.96;65.77;100718.00;5014052;28;20096;-78
2023/08/09 11:00:28;;;;;;;3.28;0.30;;;;;;;15.98;65.85;100719.75;5015567;28;20133;-77
2023/08/09 11:02:59;;;;;;;4.22;0.20;;;;;;;15.85;65.67;100696.56;5015229;28;20046;-78
2023/08/09 11:05:28;;;;;;;8.30;0.70;;;;;;;15.98;65.57;100725.88;5017592;28;20720;-78
2023/08/09 11:07:57;;;;;;;5.45;0.38;;;;;;;15.96;65.42;100733.81;5010600;28;20053;-78
2023/08/09 11:10:32;;;;;;;5.35;0.30;;;;;;;15.98;65.71;100731.13;5015231;28;20485;-79
2023/08/09 11:13:02;;;;;;;;;;;;;;;15.99;65.72;100737.25;5012170;28;20073;-77
2023/08/09 11:15:29;;;;;;;3.65;0.30;;;;;;;15.98;65.40;100728.50;5012280;28;20371;-79
2023/08/09 11:17:58;;;;;;;16.85;0.98;;;;;;;15.82;65.91;100701.91;5012300;28;20042;-78
2023/08/09 11:20:25;;;;;;;3.75;0.40;;;;;;;15.93;66.04;100726.03;5009901;28;20084;-78
2023/08/09 11:22:56;;;;;;;5.13;0.30;;;;;;;16.00;65.93;100744.25;5010956;28;20372;-78
2023/08/09 11:25:24;;;;;;;1.63;0.20;;;;;;;15.95;66.08;100732.13;5017261;28;20125;-79
2023/08/09 11:27:52;;;;;;;4.60;0.30;;;;;;;16.01;65.67;100740.69;5015220;28;20510;-78